METAR Data
IDs: Format: Raw Decoded Include TAF

Data at: 0241 UTC 10 Dec 2022

METAR for:KGEZ (Shelbyville Muni, IN, US)
Text:KGEZ 100212Z AUTO 07004KT 2 1/2SM BR OVC003 07/06 A3013 RMK AO2 T00720061
Temperature: 7.2°C ( 45°F)
Dewpoint: 6.1°C ( 43°F) [RH = 93%]
Pressure (altimeter):30.13 inches Hg (1020.4 mb)
Winds:from the ENE (70 degrees) at 5 MPH (4 knots; 2.1 m/s)
Visibility: 2.50 sm ( 4.02 km)
Ceiling:300 feet AGL
Clouds: overcast cloud deck at 300 feet AGL
Weather:BR (mist)
QC Flag:automated observation with no human augmentation